sensor_id;sensor_type;location;lat;lon;timestamp;P1;durP1;ratioP1;P2;durP2;ratioP2
15073;SDS011;7636;63.884;20.308;2022-11-20T00:00:53;1.43;;;0.97;;
15073;SDS011;7636;63.884;20.308;2022-11-20T00:03:20;1.97;;;1.10;;
15073;SDS011;7636;63.884;20.308;2022-11-20T00:05:47;1.63;;;0.83;;
15073;SDS011;7636;63.884;20.308;2022-11-20T00:08:14;2.33;;;0.83;;
15073;SDS011;7636;63.884;20.308;2022-11-20T00:10:41;2.03;;;1.10;;
15073;SDS011;7636;63.884;20.308;2022-11-20T00:13:07;2.00;;;1.03;;
15073;SDS011;7636;63.884;20.308;2022-11-20T00:15:34;2.30;;;1.03;;
15073;SDS011;7636;63.884;20.308;2022-11-20T00:18:01;1.57;;;0.90;;
15073;SDS011;7636;63.884;20.308;2022-11-20T00:20:28;2.53;;;1.30;;
15073;SDS011;7636;63.884;20.308;2022-11-20T00:22:54;1.63;;;0.80;;
15073;SDS011;7636;63.884;20.308;2022-11-20T00:25:21;1.47;;;0.97;;
15073;SDS011;7636;63.884;20.308;2022-11-20T00:27:48;1.03;;;0.93;;
15073;SDS011;7636;63.884;20.308;2022-11-20T00:30:15;1.40;;;0.80;;
15073;SDS011;7636;63.884;20.308;2022-11-20T00:32:42;0.97;;;0.67;;
15073;SDS011;7636;63.884;20.308;2022-11-20T00:35:08;1.20;;;0.70;;
15073;SDS011;7636;63.884;20.308;2022-11-20T00:37:35;1.00;;;0.60;;
15073;SDS011;7636;63.884;20.308;2022-11-20T00:40:02;1.03;;;0.80;;
15073;SDS011;7636;63.884;20.308;2022-11-20T00:42:28;2.10;;;0.70;;
15073;SDS011;7636;63.884;20.308;2022-11-20T00:44:55;1.60;;;1.17;;
15073;SDS011;7636;63.884;20.308;2022-11-20T00:47:22;1.20;;;0.67;;
15073;SDS011;7636;63.884;20.308;2022-11-20T00:49:49;0.83;;;0.67;;
15073;SDS011;7636;63.884;20.308;2022-11-20T00:52:15;2.43;;;0.90;;
15073;SDS011;7636;63.884;20.308;2022-11-20T00:54:42;0.90;;;0.70;;
15073;SDS011;7636;63.884;20.308;2022-11-20T00:57:09;1.47;;;0.60;;
15073;SDS011;7636;63.884;20.308;2022-11-20T00:59:36;1.43;;;0.93;;
15073;SDS011;7636;63.884;20.308;2022-11-20T01:02:02;1.33;;;0.73;;
15073;SDS011;7636;63.884;20.308;2022-11-20T01:04:29;1.67;;;0.70;;
15073;SDS011;7636;63.884;20.308;2022-11-20T01:06:56;0.53;;;0.40;;
15073;SDS011;7636;63.884;20.308;2022-11-20T01:09:23;0.77;;;0.50;;
15073;SDS011;7636;63.884;20.308;2022-11-20T01:11:50;0.87;;;0.60;;
15073;SDS011;7636;63.884;20.308;2022-11-20T01:14:17;1.70;;;0.70;;
15073;SDS011;7636;63.884;20.308;2022-11-20T01:16:47;1.43;;;0.80;;
15073;SDS011;7636;63.884;20.308;2022-11-20T01:19:16;1.13;;;0.47;;
15073;SDS011;7636;63.884;20.308;2022-11-20T01:21:47;0.80;;;0.60;;
15073;SDS011;7636;63.884;20.308;2022-11-20T01:24:16;1.43;;;0.60;;
15073;SDS011;7636;63.884;20.308;2022-11-20T01:26:44;1.13;;;0.60;;
15073;SDS011;7636;63.884;20.308;2022-11-20T01:29:14;0.97;;;0.50;;
15073;SDS011;7636;63.884;20.308;2022-11-20T01:31:43;0.73;;;0.43;;
15073;SDS011;7636;63.884;20.308;2022-11-20T01:34:11;1.47;;;0.50;;
15073;SDS011;7636;63.884;20.308;2022-11-20T01:36:41;0.57;;;0.40;;
15073;SDS011;7636;63.884;20.308;2022-11-20T01:39:22;1.57;;;0.50;;
15073;SDS011;7636;63.884;20.308;2022-11-20T01:41:51;0.57;;;0.43;;
15073;SDS011;7636;63.884;20.308;2022-11-20T01:50:06;0.40;;;0.40;;
15073;SDS011;7636;63.884;20.308;2022-11-20T01:52:52;0.87;;;0.40;;
15073;SDS011;7636;63.884;20.308;2022-11-20T01:55:50;1.17;;;0.40;;
15073;SDS011;7636;63.884;20.308;2022-11-20T01:58:20;0.87;;;0.60;;
15073;SDS011;7636;63.884;20.308;2022-11-20T02:00:52;0.97;;;0.63;;
15073;SDS011;7636;63.884;20.308;2022-11-20T02:03:19;0.40;;;0.40;;
15073;SDS011;7636;63.884;20.308;2022-11-20T02:08:16;0.50;;;0.20;;
15073;SDS011;7636;63.884;20.308;2022-11-20T02:10:44;0.67;;;0.30;;
15073;SDS011;7636;63.884;20.308;2022-11-20T02:13:11;0.60;;;0.47;;
15073;SDS011;7636;63.884;20.308;2022-11-20T02:15:56;0.50;;;0.40;;
15073;SDS011;7636;63.884;20.308;2022-11-20T02:18:23;0.27;;;0.27;;
15073;SDS011;7636;63.884;20.308;2022-11-20T02:20:53;0.80;;;0.40;;
15073;SDS011;7636;63.884;20.308;2022-11-20T02:23:33;0.67;;;0.30;;
15073;SDS011;7636;63.884;20.308;2022-11-20T02:26:10;0.50;;;0.20;;
15073;SDS011;7636;63.884;20.308;2022-11-20T02:28:40;1.17;;;0.27;;
15073;SDS011;7636;63.884;20.308;2022-11-20T02:31:07;0.47;;;0.20;;
15073;SDS011;7636;63.884;20.308;2022-11-20T02:33:34;0.30;;;0.20;;
15073;SDS011;7636;63.884;20.308;2022-11-20T02:36:01;0.80;;;0.23;;
15073;SDS011;7636;63.884;20.308;2022-11-20T02:38:28;0.30;;;0.20;;
15073;SDS011;7636;63.884;20.308;2022-11-20T02:40:54;0.40;;;0.30;;
15073;SDS011;7636;63.884;20.308;2022-11-20T02:43:22;0.23;;;0.20;;
15073;SDS011;7636;63.884;20.308;2022-11-20T02:45:49;1.33;;;0.30;;
15073;SDS011;7636;63.884;20.308;2022-11-20T02:48:15;0.30;;;0.30;;
15073;SDS011;7636;63.884;20.308;2022-11-20T02:50:42;0.17;;;0.13;;
15073;SDS011;7636;63.884;20.308;2022-11-20T02:53:09;0.23;;;0.20;;
15073;SDS011;7636;63.884;20.308;2022-11-20T02:55:36;0.37;;;0.20;;
15073;SDS011;7636;63.884;20.308;2022-11-20T02:58:03;0.30;;;0.27;;
15073;SDS011;7636;63.884;20.308;2022-11-20T03:00:29;1.00;;;0.30;;
15073;SDS011;7636;63.884;20.308;2022-11-20T03:02:56;0.33;;;0.30;;
15073;SDS011;7636;63.884;20.308;2022-11-20T03:05:23;0.40;;;0.30;;
15073;SDS011;7636;63.884;20.308;2022-11-20T03:07:50;0.63;;;0.30;;
15073;SDS011;7636;63.884;20.308;2022-11-20T03:10:17;0.30;;;0.30;;
15073;SDS011;7636;63.884;20.308;2022-11-20T03:12:43;0.30;;;0.20;;
15073;SDS011;7636;63.884;20.308;2022-11-20T03:15:10;0.70;;;0.40;;
15073;SDS011;7636;63.884;20.308;2022-11-20T03:17:37;0.40;;;0.30;;
15073;SDS011;7636;63.884;20.308;2022-11-20T03:20:04;0.60;;;0.30;;
15073;SDS011;7636;63.884;20.308;2022-11-20T03:22:32;0.50;;;0.50;;
15073;SDS011;7636;63.884;20.308;2022-11-20T03:24:58;0.70;;;0.30;;
15073;SDS011;7636;63.884;20.308;2022-11-20T03:27:25;0.50;;;0.40;;
15073;SDS011;7636;63.884;20.308;2022-11-20T03:29:52;0.37;;;0.30;;
15073;SDS011;7636;63.884;20.308;2022-11-20T03:32:18;0.47;;;0.40;;
15073;SDS011;7636;63.884;20.308;2022-11-20T03:34:45;0.63;;;0.50;;
15073;SDS011;7636;63.884;20.308;2022-11-20T03:37:12;0.97;;;0.30;;
15073;SDS011;7636;63.884;20.308;2022-11-20T03:39:39;0.60;;;0.40;;
15073;SDS011;7636;63.884;20.308;2022-11-20T03:42:06;0.70;;;0.40;;
15073;SDS011;7636;63.884;20.308;2022-11-20T03:44:52;1.37;;;0.53;;
15073;SDS011;7636;63.884;20.308;2022-11-20T03:47:19;0.70;;;0.40;;
15073;SDS011;7636;63.884;20.308;2022-11-20T03:49:46;0.87;;;0.57;;
15073;SDS011;7636;63.884;20.308;2022-11-20T03:52:13;1.97;;;0.70;;
15073;SDS011;7636;63.884;20.308;2022-11-20T03:54:40;1.00;;;0.60;;
15073;SDS011;7636;63.884;20.308;2022-11-20T03:57:06;0.97;;;0.67;;
15073;SDS011;7636;63.884;20.308;2022-11-20T03:59:33;0.80;;;0.30;;
15073;SDS011;7636;63.884;20.308;2022-11-20T04:02:00;0.80;;;0.60;;
15073;SDS011;7636;63.884;20.308;2022-11-20T04:04:27;0.60;;;0.50;;
15073;SDS011;7636;63.884;20.308;2022-11-20T04:06:53;0.93;;;0.60;;
15073;SDS011;7636;63.884;20.308;2022-11-20T04:09:20;0.47;;;0.30;;
15073;SDS011;7636;63.884;20.308;2022-11-20T04:11:48;0.90;;;0.60;;
15073;SDS011;7636;63.884;20.308;2022-11-20T04:14:15;0.80;;;0.60;;
15073;SDS011;7636;63.884;20.308;2022-11-20T04:16:43;0.87;;;0.50;;
15073;SDS011;7636;63.884;20.308;2022-11-20T04:19:11;2.20;;;0.40;;
15073;SDS011;7636;63.884;20.308;2022-11-20T04:21:39;1.37;;;0.60;;
15073;SDS011;7636;63.884;20.308;2022-11-20T04:24:07;0.50;;;0.40;;
15073;SDS011;7636;63.884;20.308;2022-11-20T04:26:34;0.57;;;0.50;;
15073;SDS011;7636;63.884;20.308;2022-11-20T04:29:00;0.40;;;0.40;;
15073;SDS011;7636;63.884;20.308;2022-11-20T04:31:32;0.50;;;0.50;;
15073;SDS011;7636;63.884;20.308;2022-11-20T04:34:03;0.50;;;0.40;;
15073;SDS011;7636;63.884;20.308;2022-11-20T04:36:32;0.50;;;0.40;;
15073;SDS011;7636;63.884;20.308;2022-11-20T04:39:00;0.83;;;0.53;;
15073;SDS011;7636;63.884;20.308;2022-11-20T04:41:29;1.17;;;0.50;;
15073;SDS011;7636;63.884;20.308;2022-11-20T04:43:58;1.10;;;0.47;;
15073;SDS011;7636;63.884;20.308;2022-11-20T04:46:51;1.00;;;0.70;;
15073;SDS011;7636;63.884;20.308;2022-11-20T04:49:16;1.10;;;0.50;;
15073;SDS011;7636;63.884;20.308;2022-11-20T04:51:43;0.40;;;0.40;;
15073;SDS011;7636;63.884;20.308;2022-11-20T04:54:10;1.93;;;0.70;;
15073;SDS011;7636;63.884;20.308;2022-11-20T04:56:37;0.50;;;0.40;;
15073;SDS011;7636;63.884;20.308;2022-11-20T04:59:04;0.60;;;0.40;;
15073;SDS011;7636;63.884;20.308;2022-11-20T05:01:31;0.80;;;0.50;;
15073;SDS011;7636;63.884;20.308;2022-11-20T05:03:58;3.20;;;0.57;;
15073;SDS011;7636;63.884;20.308;2022-11-20T05:06:25;1.57;;;0.70;;
15073;SDS011;7636;63.884;20.308;2022-11-20T05:08:52;0.87;;;0.43;;
15073;SDS011;7636;63.884;20.308;2022-11-20T05:11:20;0.90;;;0.40;;
15073;SDS011;7636;63.884;20.308;2022-11-20T05:13:47;0.43;;;0.30;;
15073;SDS011;7636;63.884;20.308;2022-11-20T05:16:17;0.90;;;0.60;;
15073;SDS011;7636;63.884;20.308;2022-11-20T05:18:45;2.00;;;0.40;;
15073;SDS011;7636;63.884;20.308;2022-11-20T05:21:13;0.70;;;0.43;;
15073;SDS011;7636;63.884;20.308;2022-11-20T05:23:40;0.40;;;0.30;;
15073;SDS011;7636;63.884;20.308;2022-11-20T05:26:15;0.83;;;0.57;;
15073;SDS011;7636;63.884;20.308;2022-11-20T05:28:43;0.30;;;0.30;;
15073;SDS011;7636;63.884;20.308;2022-11-20T05:31:11;0.37;;;0.30;;
15073;SDS011;7636;63.884;20.308;2022-11-20T05:33:40;0.60;;;0.40;;
15073;SDS011;7636;63.884;20.308;2022-11-20T05:36:07;0.60;;;0.30;;
15073;SDS011;7636;63.884;20.308;2022-11-20T05:38:35;0.77;;;0.50;;
15073;SDS011;7636;63.884;20.308;2022-11-20T05:41:02;0.80;;;0.40;;
15073;SDS011;7636;63.884;20.308;2022-11-20T05:43:36;0.60;;;0.30;;
15073;SDS011;7636;63.884;20.308;2022-11-20T05:46:06;0.30;;;0.30;;
15073;SDS011;7636;63.884;20.308;2022-11-20T05:48:34;0.50;;;0.40;;
15073;SDS011;7636;63.884;20.308;2022-11-20T05:51:02;0.50;;;0.40;;
15073;SDS011;7636;63.884;20.308;2022-11-20T05:53:31;0.40;;;0.30;;
15073;SDS011;7636;63.884;20.308;2022-11-20T05:55:59;0.40;;;0.40;;
15073;SDS011;7636;63.884;20.308;2022-11-20T05:58:31;0.60;;;0.50;;
15073;SDS011;7636;63.884;20.308;2022-11-20T06:01:08;0.40;;;0.40;;
15073;SDS011;7636;63.884;20.308;2022-11-20T06:03:41;0.57;;;0.50;;
15073;SDS011;7636;63.884;20.308;2022-11-20T06:06:17;1.03;;;0.67;;
15073;SDS011;7636;63.884;20.308;2022-11-20T06:08:45;1.00;;;0.90;;
15073;SDS011;7636;63.884;20.308;2022-11-20T06:11:12;1.23;;;0.80;;
15073;SDS011;7636;63.884;20.308;2022-11-20T06:13:40;0.80;;;0.80;;
15073;SDS011;7636;63.884;20.308;2022-11-20T06:16:08;1.03;;;0.70;;
15073;SDS011;7636;63.884;20.308;2022-11-20T06:18:36;1.17;;;0.70;;
15073;SDS011;7636;63.884;20.308;2022-11-20T06:21:04;1.53;;;0.87;;
15073;SDS011;7636;63.884;20.308;2022-11-20T06:23:36;1.00;;;0.80;;
15073;SDS011;7636;63.884;20.308;2022-11-20T06:26:04;1.00;;;0.90;;
15073;SDS011;7636;63.884;20.308;2022-11-20T06:28:33;1.43;;;1.10;;
15073;SDS011;7636;63.884;20.308;2022-11-20T06:31:00;1.50;;;0.97;;
15073;SDS011;7636;63.884;20.308;2022-11-20T06:33:27;1.37;;;0.90;;
15073;SDS011;7636;63.884;20.308;2022-11-20T06:35:57;1.10;;;0.90;;
15073;SDS011;7636;63.884;20.308;2022-11-20T06:38:29;1.33;;;0.97;;
15073;SDS011;7636;63.884;20.308;2022-11-20T06:40:56;1.23;;;0.97;;
15073;SDS011;7636;63.884;20.308;2022-11-20T06:43:23;1.90;;;0.70;;
15073;SDS011;7636;63.884;20.308;2022-11-20T06:45:53;0.60;;;0.60;;
15073;SDS011;7636;63.884;20.308;2022-11-20T06:48:21;0.90;;;0.70;;
15073;SDS011;7636;63.884;20.308;2022-11-20T06:50:49;1.13;;;0.83;;
15073;SDS011;7636;63.884;20.308;2022-11-20T06:53:16;1.87;;;0.90;;
15073;SDS011;7636;63.884;20.308;2022-11-20T06:55:46;1.37;;;0.90;;
15073;SDS011;7636;63.884;20.308;2022-11-20T06:58:14;0.90;;;0.80;;
15073;SDS011;7636;63.884;20.308;2022-11-20T07:00:42;1.00;;;0.73;;
15073;SDS011;7636;63.884;20.308;2022-11-20T07:03:10;1.00;;;0.80;;
15073;SDS011;7636;63.884;20.308;2022-11-20T07:05:37;0.90;;;0.63;;
15073;SDS011;7636;63.884;20.308;2022-11-20T07:08:04;1.20;;;0.83;;
15073;SDS011;7636;63.884;20.308;2022-11-20T07:10:32;0.77;;;0.77;;
15073;SDS011;7636;63.884;20.308;2022-11-20T07:12:59;1.00;;;0.87;;
15073;SDS011;7636;63.884;20.308;2022-11-20T07:15:26;0.90;;;0.80;;
15073;SDS011;7636;63.884;20.308;2022-11-20T07:17:53;0.97;;;0.80;;
15073;SDS011;7636;63.884;20.308;2022-11-20T07:20:20;1.10;;;0.80;;
15073;SDS011;7636;63.884;20.308;2022-11-20T07:22:46;0.70;;;0.53;;
15073;SDS011;7636;63.884;20.308;2022-11-20T07:25:19;0.90;;;0.53;;
15073;SDS011;7636;63.884;20.308;2022-11-20T07:27:46;0.80;;;0.60;;
15073;SDS011;7636;63.884;20.308;2022-11-20T07:30:12;1.20;;;0.80;;
15073;SDS011;7636;63.884;20.308;2022-11-20T07:32:40;0.80;;;0.60;;
15073;SDS011;7636;63.884;20.308;2022-11-20T07:35:07;2.13;;;0.77;;
15073;SDS011;7636;63.884;20.308;2022-11-20T07:37:34;0.80;;;0.60;;
15073;SDS011;7636;63.884;20.308;2022-11-20T07:40:01;2.07;;;0.67;;
15073;SDS011;7636;63.884;20.308;2022-11-20T07:42:28;0.60;;;0.60;;
15073;SDS011;7636;63.884;20.308;2022-11-20T07:44:55;0.70;;;0.50;;
15073;SDS011;7636;63.884;20.308;2022-11-20T07:47:22;0.80;;;0.70;;
15073;SDS011;7636;63.884;20.308;2022-11-20T07:49:49;1.17;;;0.80;;
15073;SDS011;7636;63.884;20.308;2022-11-20T07:52:15;1.03;;;0.87;;
15073;SDS011;7636;63.884;20.308;2022-11-20T07:54:42;1.20;;;0.80;;
15073;SDS011;7636;63.884;20.308;2022-11-20T07:57:09;0.67;;;0.60;;
15073;SDS011;7636;63.884;20.308;2022-11-20T07:59:36;1.43;;;0.73;;
15073;SDS011;7636;63.884;20.308;2022-11-20T08:02:05;1.83;;;0.60;;
15073;SDS011;7636;63.884;20.308;2022-11-20T08:04:31;0.77;;;0.47;;
15073;SDS011;7636;63.884;20.308;2022-11-20T08:06:59;0.47;;;0.47;;
15073;SDS011;7636;63.884;20.308;2022-11-20T08:09:26;0.63;;;0.63;;
15073;SDS011;7636;63.884;20.308;2022-11-20T08:11:53;0.50;;;0.40;;
15073;SDS011;7636;63.884;20.308;2022-11-20T08:14:38;1.40;;;0.70;;
15073;SDS011;7636;63.884;20.308;2022-11-20T08:17:05;1.50;;;0.50;;
15073;SDS011;7636;63.884;20.308;2022-11-20T08:19:32;0.70;;;0.53;;
15073;SDS011;7636;63.884;20.308;2022-11-20T08:21:59;0.67;;;0.50;;
15073;SDS011;7636;63.884;20.308;2022-11-20T08:24:25;0.80;;;0.60;;
15073;SDS011;7636;63.884;20.308;2022-11-20T08:26:52;0.50;;;0.40;;
15073;SDS011;7636;63.884;20.308;2022-11-20T08:29:19;0.40;;;0.40;;
15073;SDS011;7636;63.884;20.308;2022-11-20T08:31:46;0.70;;;0.60;;
15073;SDS011;7636;63.884;20.308;2022-11-20T08:34:13;0.53;;;0.53;;
15073;SDS011;7636;63.884;20.308;2022-11-20T08:36:44;0.93;;;0.40;;
15073;SDS011;7636;63.884;20.308;2022-11-20T08:39:11;0.50;;;0.50;;
15073;SDS011;7636;63.884;20.308;2022-11-20T08:41:39;0.70;;;0.30;;
15073;SDS011;7636;63.884;20.308;2022-11-20T08:44:06;0.77;;;0.63;;
15073;SDS011;7636;63.884;20.308;2022-11-20T08:46:35;0.47;;;0.40;;
15073;SDS011;7636;63.884;20.308;2022-11-20T08:49:08;0.40;;;0.30;;
15073;SDS011;7636;63.884;20.308;2022-11-20T08:51:37;0.70;;;0.50;;
15073;SDS011;7636;63.884;20.308;2022-11-20T08:54:04;0.47;;;0.40;;
15073;SDS011;7636;63.884;20.308;2022-11-20T08:56:32;1.00;;;0.50;;
15073;SDS011;7636;63.884;20.308;2022-11-20T08:59:00;0.40;;;0.30;;
15073;SDS011;7636;63.884;20.308;2022-11-20T09:01:47;0.83;;;0.43;;
15073;SDS011;7636;63.884;20.308;2022-11-20T09:04:14;1.53;;;0.60;;
15073;SDS011;7636;63.884;20.308;2022-11-20T09:06:41;2.20;;;0.63;;
15073;SDS011;7636;63.884;20.308;2022-11-20T09:09:08;1.40;;;0.80;;
15073;SDS011;7636;63.884;20.308;2022-11-20T09:11:35;1.23;;;0.70;;
15073;SDS011;7636;63.884;20.308;2022-11-20T09:14:02;0.73;;;0.50;;
15073;SDS011;7636;63.884;20.308;2022-11-20T09:16:29;1.20;;;0.67;;
15073;SDS011;7636;63.884;20.308;2022-11-20T09:18:56;0.60;;;0.60;;
15073;SDS011;7636;63.884;20.308;2022-11-20T09:21:42;1.47;;;0.73;;
15073;SDS011;7636;63.884;20.308;2022-11-20T09:24:09;0.70;;;0.50;;
15073;SDS011;7636;63.884;20.308;2022-11-20T09:26:36;0.70;;;0.60;;
15073;SDS011;7636;63.884;20.308;2022-11-20T09:29:02;0.77;;;0.67;;
15073;SDS011;7636;63.884;20.308;2022-11-20T09:31:29;1.43;;;0.77;;
15073;SDS011;7636;63.884;20.308;2022-11-20T09:33:56;0.63;;;0.47;;
15073;SDS011;7636;63.884;20.308;2022-11-20T09:36:23;0.40;;;0.30;;
15073;SDS011;7636;63.884;20.308;2022-11-20T09:38:50;0.90;;;0.67;;
15073;SDS011;7636;63.884;20.308;2022-11-20T09:41:42;0.90;;;0.53;;
15073;SDS011;7636;63.884;20.308;2022-11-20T09:56:02;0.60;;;0.60;;
15073;SDS011;7636;63.884;20.308;2022-11-20T09:58:32;1.10;;;0.67;;
15073;SDS011;7636;63.884;20.308;2022-11-20T10:01:26;0.63;;;0.50;;
15073;SDS011;7636;63.884;20.308;2022-11-20T10:04:01;1.07;;;0.40;;
15073;SDS011;7636;63.884;20.308;2022-11-20T10:06:32;0.60;;;0.40;;
15073;SDS011;7636;63.884;20.308;2022-11-20T10:31:06;0.47;;;0.40;;
15073;SDS011;7636;63.884;20.308;2022-11-20T10:33:37;0.53;;;0.40;;
15073;SDS011;7636;63.884;20.308;2022-11-20T10:36:33;0.30;;;0.27;;
15073;SDS011;7636;63.884;20.308;2022-11-20T10:39:14;0.73;;;0.50;;
15073;SDS011;7636;63.884;20.308;2022-11-20T10:41:43;0.40;;;0.40;;
15073;SDS011;7636;63.884;20.308;2022-11-20T10:44:17;0.40;;;0.30;;
15073;SDS011;7636;63.884;20.308;2022-11-20T10:47:05;0.30;;;0.30;;
15073;SDS011;7636;63.884;20.308;2022-11-20T10:49:45;0.50;;;0.40;;
15073;SDS011;7636;63.884;20.308;2022-11-20T10:57:58;0.40;;;0.40;;
15073;SDS011;7636;63.884;20.308;2022-11-20T11:00:38;0.30;;;0.30;;
15073;SDS011;7636;63.884;20.308;2022-11-20T11:08:50;1.00;;;0.53;;
15073;SDS011;7636;63.884;20.308;2022-11-20T11:11:23;1.37;;;0.50;;
15073;SDS011;7636;63.884;20.308;2022-11-20T11:14:09;0.43;;;0.37;;
15073;SDS011;7636;63.884;20.308;2022-11-20T11:16:51;0.67;;;0.50;;
15073;SDS011;7636;63.884;20.308;2022-11-20T11:19:23;0.50;;;0.50;;
15073;SDS011;7636;63.884;20.308;2022-11-20T11:21:55;0.47;;;0.47;;
15073;SDS011;7636;63.884;20.308;2022-11-20T11:24:24;1.57;;;0.40;;
15073;SDS011;7636;63.884;20.308;2022-11-20T11:27:11;0.40;;;0.40;;
15073;SDS011;7636;63.884;20.308;2022-11-20T11:29:43;1.30;;;0.60;;
15073;SDS011;7636;63.884;20.308;2022-11-20T11:32:19;1.43;;;0.80;;
15073;SDS011;7636;63.884;20.308;2022-11-20T11:35:04;1.10;;;0.50;;
15073;SDS011;7636;63.884;20.308;2022-11-20T11:37:36;1.10;;;0.43;;
15073;SDS011;7636;63.884;20.308;2022-11-20T11:40:05;0.43;;;0.30;;
15073;SDS011;7636;63.884;20.308;2022-11-20T11:42:54;0.93;;;0.40;;
15073;SDS011;7636;63.884;20.308;2022-11-20T11:45:26;0.30;;;0.30;;
15073;SDS011;7636;63.884;20.308;2022-11-20T11:47:54;0.40;;;0.30;;
15073;SDS011;7636;63.884;20.308;2022-11-20T11:50:25;0.33;;;0.30;;
15073;SDS011;7636;63.884;20.308;2022-11-20T12:01:22;0.33;;;0.23;;
15073;SDS011;7636;63.884;20.308;2022-11-20T12:03:59;0.50;;;0.40;;
15073;SDS011;7636;63.884;20.308;2022-11-20T12:06:30;0.97;;;0.40;;
15073;SDS011;7636;63.884;20.308;2022-11-20T12:09:04;1.10;;;0.33;;
15073;SDS011;7636;63.884;20.308;2022-11-20T12:11:53;0.73;;;0.30;;
15073;SDS011;7636;63.884;20.308;2022-11-20T12:14:35;0.93;;;0.50;;
15073;SDS011;7636;63.884;20.308;2022-11-20T12:17:04;0.63;;;0.40;;
15073;SDS011;7636;63.884;20.308;2022-11-20T12:19:31;1.17;;;0.50;;
15073;SDS011;7636;63.884;20.308;2022-11-20T12:32:54;0.50;;;0.40;;
15073;SDS011;7636;63.884;20.308;2022-11-20T12:38:45;0.30;;;0.30;;
15073;SDS011;7636;63.884;20.308;2022-11-20T12:52:51;0.30;;;0.30;;
15073;SDS011;7636;63.884;20.308;2022-11-20T12:55:34;0.40;;;0.37;;
15073;SDS011;7636;63.884;20.308;2022-11-20T12:58:05;0.33;;;0.30;;
15073;SDS011;7636;63.884;20.308;2022-11-20T13:06:44;0.90;;;0.50;;
15073;SDS011;7636;63.884;20.308;2022-11-20T13:09:12;0.53;;;0.33;;
15073;SDS011;7636;63.884;20.308;2022-11-20T13:17:15;0.33;;;0.17;;
15073;SDS011;7636;63.884;20.308;2022-11-20T13:20:04;0.33;;;0.33;;
15073;SDS011;7636;63.884;20.308;2022-11-20T13:22:46;0.70;;;0.33;;
15073;SDS011;7636;63.884;20.308;2022-11-20T13:28:04;1.60;;;0.30;;
15073;SDS011;7636;63.884;20.308;2022-11-20T13:30:52;0.30;;;0.20;;
15073;SDS011;7636;63.884;20.308;2022-11-20T13:33:26;1.17;;;0.50;;
15073;SDS011;7636;63.884;20.308;2022-11-20T13:35:55;2.10;;;0.40;;
15073;SDS011;7636;63.884;20.308;2022-11-20T13:38:27;0.50;;;0.30;;
15073;SDS011;7636;63.884;20.308;2022-11-20T13:41:07;0.73;;;0.57;;
15073;SDS011;7636;63.884;20.308;2022-11-20T13:43:53;1.30;;;0.80;;
15073;SDS011;7636;63.884;20.308;2022-11-20T13:46:37;0.40;;;0.30;;
15073;SDS011;7636;63.884;20.308;2022-11-20T13:49:50;0.30;;;0.30;;
15073;SDS011;7636;63.884;20.308;2022-11-20T13:57:59;1.30;;;0.60;;
15073;SDS011;7636;63.884;20.308;2022-11-20T14:00:28;0.40;;;0.30;;
15073;SDS011;7636;63.884;20.308;2022-11-20T14:05:32;0.43;;;0.40;;
15073;SDS011;7636;63.884;20.308;2022-11-20T14:08:04;0.60;;;0.40;;
15073;SDS011;7636;63.884;20.308;2022-11-20T14:10:32;0.50;;;0.40;;
15073;SDS011;7636;63.884;20.308;2022-11-20T14:13:09;1.67;;;0.50;;
15073;SDS011;7636;63.884;20.308;2022-11-20T14:15:36;0.40;;;0.30;;
15073;SDS011;7636;63.884;20.308;2022-11-20T14:18:14;0.53;;;0.30;;
15073;SDS011;7636;63.884;20.308;2022-11-20T14:20:46;0.60;;;0.40;;
15073;SDS011;7636;63.884;20.308;2022-11-20T14:23:22;0.53;;;0.30;;
15073;SDS011;7636;63.884;20.308;2022-11-20T14:25:55;0.57;;;0.20;;
15073;SDS011;7636;63.884;20.308;2022-11-20T14:28:24;0.37;;;0.30;;
15073;SDS011;7636;63.884;20.308;2022-11-20T14:30:53;0.67;;;0.40;;
15073;SDS011;7636;63.884;20.308;2022-11-20T14:33:21;1.10;;;0.40;;
15073;SDS011;7636;63.884;20.308;2022-11-20T14:35:54;0.63;;;0.40;;
15073;SDS011;7636;63.884;20.308;2022-11-20T14:38:27;0.93;;;0.70;;
15073;SDS011;7636;63.884;20.308;2022-11-20T14:41:05;0.57;;;0.53;;
15073;SDS011;7636;63.884;20.308;2022-11-20T14:43:33;0.50;;;0.40;;
15073;SDS011;7636;63.884;20.308;2022-11-20T14:46:05;0.50;;;0.30;;
15073;SDS011;7636;63.884;20.308;2022-11-20T14:48:38;1.13;;;0.40;;
15073;SDS011;7636;63.884;20.308;2022-11-20T14:51:09;0.40;;;0.20;;
15073;SDS011;7636;63.884;20.308;2022-11-20T14:53:37;0.50;;;0.43;;
15073;SDS011;7636;63.884;20.308;2022-11-20T14:56:04;1.00;;;0.40;;
15073;SDS011;7636;63.884;20.308;2022-11-20T14:58:31;0.90;;;0.40;;
15073;SDS011;7636;63.884;20.308;2022-11-20T15:01:01;0.30;;;0.30;;
15073;SDS011;7636;63.884;20.308;2022-11-20T15:03:36;0.40;;;0.30;;
15073;SDS011;7636;63.884;20.308;2022-11-20T15:06:06;0.40;;;0.30;;
15073;SDS011;7636;63.884;20.308;2022-11-20T15:08:34;0.90;;;0.60;;
15073;SDS011;7636;63.884;20.308;2022-11-20T15:11:01;0.40;;;0.30;;
15073;SDS011;7636;63.884;20.308;2022-11-20T15:13:36;0.67;;;0.43;;
15073;SDS011;7636;63.884;20.308;2022-11-20T15:16:10;0.63;;;0.50;;
15073;SDS011;7636;63.884;20.308;2022-11-20T15:18:44;0.73;;;0.40;;
15073;SDS011;7636;63.884;20.308;2022-11-20T15:21:12;0.40;;;0.27;;
15073;SDS011;7636;63.884;20.308;2022-11-20T15:23:44;0.30;;;0.30;;
15073;SDS011;7636;63.884;20.308;2022-11-20T15:26:11;0.30;;;0.30;;
15073;SDS011;7636;63.884;20.308;2022-11-20T15:28:45;0.67;;;0.30;;
15073;SDS011;7636;63.884;20.308;2022-11-20T15:31:15;0.60;;;0.60;;
15073;SDS011;7636;63.884;20.308;2022-11-20T15:33:43;1.03;;;0.40;;
15073;SDS011;7636;63.884;20.308;2022-11-20T15:36:10;0.70;;;0.30;;
15073;SDS011;7636;63.884;20.308;2022-11-20T15:38:37;0.73;;;0.47;;
15073;SDS011;7636;63.884;20.308;2022-11-20T15:41:03;0.40;;;0.40;;
15073;SDS011;7636;63.884;20.308;2022-11-20T15:43:30;0.80;;;0.50;;
15073;SDS011;7636;63.884;20.308;2022-11-20T15:46:04;0.57;;;0.40;;
15073;SDS011;7636;63.884;20.308;2022-11-20T15:48:36;0.70;;;0.60;;
15073;SDS011;7636;63.884;20.308;2022-11-20T15:51:35;0.80;;;0.60;;
15073;SDS011;7636;63.884;20.308;2022-11-20T15:54:10;1.17;;;0.63;;
15073;SDS011;7636;63.884;20.308;2022-11-20T15:56:47;1.13;;;0.60;;
15073;SDS011;7636;63.884;20.308;2022-11-20T15:59:14;1.20;;;1.00;;
15073;SDS011;7636;63.884;20.308;2022-11-20T16:01:41;1.10;;;0.90;;
15073;SDS011;7636;63.884;20.308;2022-11-20T16:04:12;1.30;;;0.83;;
15073;SDS011;7636;63.884;20.308;2022-11-20T16:06:40;1.93;;;1.00;;
15073;SDS011;7636;63.884;20.308;2022-11-20T16:09:07;1.73;;;0.90;;
15073;SDS011;7636;63.884;20.308;2022-11-20T16:11:34;2.67;;;1.50;;
15073;SDS011;7636;63.884;20.308;2022-11-20T16:14:04;1.70;;;1.37;;
15073;SDS011;7636;63.884;20.308;2022-11-20T16:16:51;2.00;;;1.43;;
15073;SDS011;7636;63.884;20.308;2022-11-20T16:19:18;2.50;;;1.50;;
15073;SDS011;7636;63.884;20.308;2022-11-20T16:21:44;2.60;;;1.60;;
15073;SDS011;7636;63.884;20.308;2022-11-20T16:24:12;3.00;;;1.40;;
15073;SDS011;7636;63.884;20.308;2022-11-20T16:26:40;3.27;;;1.30;;
15073;SDS011;7636;63.884;20.308;2022-11-20T16:29:07;2.20;;;1.40;;
15073;SDS011;7636;63.884;20.308;2022-11-20T16:31:34;2.67;;;1.30;;
15073;SDS011;7636;63.884;20.308;2022-11-20T16:34:02;2.67;;;1.53;;
15073;SDS011;7636;63.884;20.308;2022-11-20T16:36:39;3.53;;;1.83;;
15073;SDS011;7636;63.884;20.308;2022-11-20T16:39:06;3.50;;;2.30;;
15073;SDS011;7636;63.884;20.308;2022-11-20T16:41:34;3.53;;;2.23;;
15073;SDS011;7636;63.884;20.308;2022-11-20T16:44:05;4.47;;;1.43;;
15073;SDS011;7636;63.884;20.308;2022-11-20T16:46:34;2.07;;;1.60;;
15073;SDS011;7636;63.884;20.308;2022-11-20T16:49:11;1.83;;;1.23;;
15073;SDS011;7636;63.884;20.308;2022-11-20T16:51:39;2.77;;;1.67;;
15073;SDS011;7636;63.884;20.308;2022-11-20T16:54:08;2.70;;;1.60;;
15073;SDS011;7636;63.884;20.308;2022-11-20T16:56:36;2.63;;;1.50;;